sensor_id;sensor_type;location;lat;lon;timestamp;P1;durP1;ratioP1;P2;durP2;ratioP2
4553;SDS011;2289;48.316;15.174;2023-06-05T00:01:07;6.80;;;4.27;;
4553;SDS011;2289;48.316;15.174;2023-06-05T00:03:37;4.77;;;4.27;;
4553;SDS011;2289;48.316;15.174;2023-06-05T00:06:07;5.77;;;3.50;;
4553;SDS011;2289;48.316;15.174;2023-06-05T00:08:36;6.73;;;4.30;;
4553;SDS011;2289;48.316;15.174;2023-06-05T00:11:05;5.23;;;3.90;;
4553;SDS011;2289;48.316;15.174;2023-06-05T00:13:34;5.50;;;4.27;;
4553;SDS011;2289;48.316;15.174;2023-06-05T00:16:03;5.30;;;4.30;;
4553;SDS011;2289;48.316;15.174;2023-06-05T00:18:33;4.40;;;3.90;;
4553;SDS011;2289;48.316;15.174;2023-06-05T00:21:03;6.37;;;3.70;;
4553;SDS011;2289;48.316;15.174;2023-06-05T00:23:33;5.60;;;3.67;;
4553;SDS011;2289;48.316;15.174;2023-06-05T00:26:02;4.20;;;3.80;;
4553;SDS011;2289;48.316;15.174;2023-06-05T00:28:32;5.10;;;3.80;;
4553;SDS011;2289;48.316;15.174;2023-06-05T00:31:01;5.27;;;3.43;;
4553;SDS011;2289;48.316;15.174;2023-06-05T00:33:30;3.90;;;3.60;;
4553;SDS011;2289;48.316;15.174;2023-06-05T00:35:59;4.40;;;3.23;;
4553;SDS011;2289;48.316;15.174;2023-06-05T00:38:29;4.43;;;3.50;;
4553;SDS011;2289;48.316;15.174;2023-06-05T00:40:58;3.30;;;3.00;;
4553;SDS011;2289;48.316;15.174;2023-06-05T00:43:26;4.00;;;3.67;;
4553;SDS011;2289;48.316;15.174;2023-06-05T00:45:56;4.60;;;2.57;;
4553;SDS011;2289;48.316;15.174;2023-06-05T00:48:30;3.10;;;2.60;;
4553;SDS011;2289;48.316;15.174;2023-06-05T00:51:00;3.70;;;3.40;;
4553;SDS011;2289;48.316;15.174;2023-06-05T00:53:30;3.77;;;3.43;;
4553;SDS011;2289;48.316;15.174;2023-06-05T00:56:01;4.93;;;3.10;;
4553;SDS011;2289;48.316;15.174;2023-06-05T00:58:32;5.43;;;3.20;;
4553;SDS011;2289;48.316;15.174;2023-06-05T01:01:01;3.33;;;3.00;;
4553;SDS011;2289;48.316;15.174;2023-06-05T01:03:31;6.80;;;3.83;;
4553;SDS011;2289;48.316;15.174;2023-06-05T01:06:02;4.43;;;3.60;;
4553;SDS011;2289;48.316;15.174;2023-06-05T01:08:33;3.90;;;3.50;;
4553;SDS011;2289;48.316;15.174;2023-06-05T01:11:08;4.67;;;3.60;;
4553;SDS011;2289;48.316;15.174;2023-06-05T01:13:57;6.20;;;4.00;;
4553;SDS011;2289;48.316;15.174;2023-06-05T01:16:31;4.57;;;3.27;;
4553;SDS011;2289;48.316;15.174;2023-06-05T01:19:01;7.10;;;3.87;;
4553;SDS011;2289;48.316;15.174;2023-06-05T01:21:30;4.53;;;3.03;;
4553;SDS011;2289;48.316;15.174;2023-06-05T01:24:01;4.30;;;3.90;;
4553;SDS011;2289;48.316;15.174;2023-06-05T01:26:33;5.23;;;4.10;;
4553;SDS011;2289;48.316;15.174;2023-06-05T01:29:06;5.63;;;3.90;;
4553;SDS011;2289;48.316;15.174;2023-06-05T01:31:36;4.57;;;3.30;;
4553;SDS011;2289;48.316;15.174;2023-06-05T01:34:07;7.07;;;3.93;;
4553;SDS011;2289;48.316;15.174;2023-06-05T01:36:40;4.37;;;3.70;;
4553;SDS011;2289;48.316;15.174;2023-06-05T01:39:11;4.40;;;3.70;;
4553;SDS011;2289;48.316;15.174;2023-06-05T01:41:41;5.97;;;4.20;;
4553;SDS011;2289;48.316;15.174;2023-06-05T01:44:11;4.40;;;3.87;;
4553;SDS011;2289;48.316;15.174;2023-06-05T01:46:42;9.97;;;3.77;;
4553;SDS011;2289;48.316;15.174;2023-06-05T01:49:12;9.30;;;4.33;;
4553;SDS011;2289;48.316;15.174;2023-06-05T01:51:40;4.47;;;3.90;;
4553;SDS011;2289;48.316;15.174;2023-06-05T01:54:11;12.50;;;4.70;;
4553;SDS011;2289;48.316;15.174;2023-06-05T01:56:42;6.63;;;4.50;;
4553;SDS011;2289;48.316;15.174;2023-06-05T01:59:12;4.43;;;4.03;;
4553;SDS011;2289;48.316;15.174;2023-06-05T02:01:41;6.63;;;4.67;;
4553;SDS011;2289;48.316;15.174;2023-06-05T02:04:11;9.87;;;6.30;;
4553;SDS011;2289;48.316;15.174;2023-06-05T02:06:46;9.20;;;5.23;;
4553;SDS011;2289;48.316;15.174;2023-06-05T02:09:17;6.90;;;5.47;;
4553;SDS011;2289;48.316;15.174;2023-06-05T02:11:50;6.80;;;5.80;;
4553;SDS011;2289;48.316;15.174;2023-06-05T02:14:20;6.80;;;6.00;;
4553;SDS011;2289;48.316;15.174;2023-06-05T02:16:49;6.77;;;6.07;;
4553;SDS011;2289;48.316;15.174;2023-06-05T02:19:19;8.00;;;6.03;;
4553;SDS011;2289;48.316;15.174;2023-06-05T02:21:48;10.90;;;6.40;;
4553;SDS011;2289;48.316;15.174;2023-06-05T02:24:20;8.67;;;6.50;;
4553;SDS011;2289;48.316;15.174;2023-06-05T02:26:50;6.73;;;5.70;;
4553;SDS011;2289;48.316;15.174;2023-06-05T02:29:18;8.47;;;6.50;;
4553;SDS011;2289;48.316;15.174;2023-06-05T02:31:48;8.13;;;6.37;;
4553;SDS011;2289;48.316;15.174;2023-06-05T02:34:17;7.07;;;6.37;;
4553;SDS011;2289;48.316;15.174;2023-06-05T02:36:46;11.10;;;7.87;;
4553;SDS011;2289;48.316;15.174;2023-06-05T02:39:17;8.70;;;5.83;;
4553;SDS011;2289;48.316;15.174;2023-06-05T02:41:47;8.40;;;7.07;;
4553;SDS011;2289;48.316;15.174;2023-06-05T02:44:16;9.47;;;7.57;;
4553;SDS011;2289;48.316;15.174;2023-06-05T02:46:46;7.93;;;6.30;;
4553;SDS011;2289;48.316;15.174;2023-06-05T02:49:15;7.43;;;6.67;;
4553;SDS011;2289;48.316;15.174;2023-06-05T02:51:44;7.73;;;6.93;;
4553;SDS011;2289;48.316;15.174;2023-06-05T02:54:12;9.10;;;8.20;;
4553;SDS011;2289;48.316;15.174;2023-06-05T02:56:42;12.10;;;9.03;;
4553;SDS011;2289;48.316;15.174;2023-06-05T02:59:15;9.00;;;8.20;;
4553;SDS011;2289;48.316;15.174;2023-06-05T03:01:44;9.70;;;8.17;;
4553;SDS011;2289;48.316;15.174;2023-06-05T03:04:14;13.20;;;9.13;;
4553;SDS011;2289;48.316;15.174;2023-06-05T03:06:48;10.63;;;9.33;;
4553;SDS011;2289;48.316;15.174;2023-06-05T03:09:17;12.63;;;10.00;;
4553;SDS011;2289;48.316;15.174;2023-06-05T03:11:48;12.93;;;8.63;;
4553;SDS011;2289;48.316;15.174;2023-06-05T03:14:18;11.60;;;9.60;;
4553;SDS011;2289;48.316;15.174;2023-06-05T03:16:47;16.90;;;8.77;;
4553;SDS011;2289;48.316;15.174;2023-06-05T03:19:16;11.43;;;9.83;;
4553;SDS011;2289;48.316;15.174;2023-06-05T03:21:45;10.17;;;9.03;;
4553;SDS011;2289;48.316;15.174;2023-06-05T03:24:14;11.00;;;9.87;;
4553;SDS011;2289;48.316;15.174;2023-06-05T03:26:43;10.70;;;9.43;;
4553;SDS011;2289;48.316;15.174;2023-06-05T03:29:12;8.73;;;7.43;;
4553;SDS011;2289;48.316;15.174;2023-06-05T03:31:43;11.60;;;9.90;;
4553;SDS011;2289;48.316;15.174;2023-06-05T03:34:12;10.50;;;9.30;;
4553;SDS011;2289;48.316;15.174;2023-06-05T03:36:40;9.90;;;8.90;;
4553;SDS011;2289;48.316;15.174;2023-06-05T03:39:09;10.90;;;9.63;;
4553;SDS011;2289;48.316;15.174;2023-06-05T03:41:39;14.70;;;10.50;;
4553;SDS011;2289;48.316;15.174;2023-06-05T03:44:07;12.20;;;10.07;;
4553;SDS011;2289;48.316;15.174;2023-06-05T03:46:36;12.50;;;11.13;;
4553;SDS011;2289;48.316;15.174;2023-06-05T03:49:07;14.00;;;12.50;;
4553;SDS011;2289;48.316;15.174;2023-06-05T03:51:36;11.60;;;10.40;;
4553;SDS011;2289;48.316;15.174;2023-06-05T03:54:06;13.03;;;10.30;;
4553;SDS011;2289;48.316;15.174;2023-06-05T03:56:35;11.03;;;9.90;;
4553;SDS011;2289;48.316;15.174;2023-06-05T03:59:10;12.20;;;10.67;;
4553;SDS011;2289;48.316;15.174;2023-06-05T04:01:46;15.00;;;12.00;;
4553;SDS011;2289;48.316;15.174;2023-06-05T04:04:16;12.67;;;11.40;;
4553;SDS011;2289;48.316;15.174;2023-06-05T04:06:45;15.80;;;12.77;;
4553;SDS011;2289;48.316;15.174;2023-06-05T04:09:14;14.10;;;12.47;;
4553;SDS011;2289;48.316;15.174;2023-06-05T04:11:43;15.37;;;13.53;;
4553;SDS011;2289;48.316;15.174;2023-06-05T04:14:14;13.13;;;11.73;;
4553;SDS011;2289;48.316;15.174;2023-06-05T04:16:43;15.27;;;13.67;;
4553;SDS011;2289;48.316;15.174;2023-06-05T04:19:12;14.37;;;13.00;;
4553;SDS011;2289;48.316;15.174;2023-06-05T04:21:42;15.70;;;12.60;;
4553;SDS011;2289;48.316;15.174;2023-06-05T04:24:11;15.13;;;12.67;;
4553;SDS011;2289;48.316;15.174;2023-06-05T04:26:40;15.70;;;13.20;;
4553;SDS011;2289;48.316;15.174;2023-06-05T04:29:09;16.90;;;12.53;;
4553;SDS011;2289;48.316;15.174;2023-06-05T04:31:41;13.60;;;12.20;;
4553;SDS011;2289;48.316;15.174;2023-06-05T04:34:10;15.20;;;13.60;;
4553;SDS011;2289;48.316;15.174;2023-06-05T04:36:39;17.93;;;14.13;;
4553;SDS011;2289;48.316;15.174;2023-06-05T04:39:09;14.97;;;13.37;;
4553;SDS011;2289;48.316;15.174;2023-06-05T04:41:41;14.30;;;12.67;;
4553;SDS011;2289;48.316;15.174;2023-06-05T04:44:12;15.40;;;13.80;;
4553;SDS011;2289;48.316;15.174;2023-06-05T04:46:43;17.37;;;14.93;;
4553;SDS011;2289;48.316;15.174;2023-06-05T04:49:12;16.63;;;14.60;;
4553;SDS011;2289;48.316;15.174;2023-06-05T04:51:41;13.77;;;12.37;;
4553;SDS011;2289;48.316;15.174;2023-06-05T04:54:12;17.03;;;13.60;;
4553;SDS011;2289;48.316;15.174;2023-06-05T04:56:41;16.03;;;14.37;;
4553;SDS011;2289;48.316;15.174;2023-06-05T04:59:12;17.03;;;13.10;;
4553;SDS011;2289;48.316;15.174;2023-06-05T05:01:41;18.70;;;13.00;;
4553;SDS011;2289;48.316;15.174;2023-06-05T05:04:11;16.50;;;14.47;;
4553;SDS011;2289;48.316;15.174;2023-06-05T05:06:40;17.77;;;15.20;;
4553;SDS011;2289;48.316;15.174;2023-06-05T05:09:15;14.10;;;12.73;;
4553;SDS011;2289;48.316;15.174;2023-06-05T05:11:44;17.00;;;15.17;;
4553;SDS011;2289;48.316;15.174;2023-06-05T05:14:13;17.47;;;15.43;;
4553;SDS011;2289;48.316;15.174;2023-06-05T05:16:42;14.77;;;12.80;;
4553;SDS011;2289;48.316;15.174;2023-06-05T05:19:11;20.83;;;15.00;;
4553;SDS011;2289;48.316;15.174;2023-06-05T05:21:40;17.67;;;15.67;;
4553;SDS011;2289;48.316;15.174;2023-06-05T05:24:09;15.67;;;13.20;;
4553;SDS011;2289;48.316;15.174;2023-06-05T05:26:39;16.03;;;11.73;;
4553;SDS011;2289;48.316;15.174;2023-06-05T05:29:08;16.87;;;15.10;;
4553;SDS011;2289;48.316;15.174;2023-06-05T05:31:37;16.23;;;12.73;;
4553;SDS011;2289;48.316;15.174;2023-06-05T05:34:06;18.63;;;12.90;;
4553;SDS011;2289;48.316;15.174;2023-06-05T05:36:35;16.77;;;13.87;;
4553;SDS011;2289;48.316;15.174;2023-06-05T05:39:04;15.10;;;13.70;;
4553;SDS011;2289;48.316;15.174;2023-06-05T05:41:34;15.90;;;14.17;;
4553;SDS011;2289;48.316;15.174;2023-06-05T05:44:07;14.77;;;12.30;;
4553;SDS011;2289;48.316;15.174;2023-06-05T05:46:36;15.37;;;13.77;;
4553;SDS011;2289;48.316;15.174;2023-06-05T05:49:05;14.27;;;12.77;;
4553;SDS011;2289;48.316;15.174;2023-06-05T05:51:34;14.87;;;13.37;;
4553;SDS011;2289;48.316;15.174;2023-06-05T05:54:03;14.70;;;13.00;;
4553;SDS011;2289;48.316;15.174;2023-06-05T05:56:32;16.67;;;12.20;;
4553;SDS011;2289;48.316;15.174;2023-06-05T05:59:03;16.70;;;13.33;;
4553;SDS011;2289;48.316;15.174;2023-06-05T06:01:33;12.30;;;11.13;;
4553;SDS011;2289;48.316;15.174;2023-06-05T06:04:03;15.57;;;11.97;;
4553;SDS011;2289;48.316;15.174;2023-06-05T06:06:31;14.00;;;12.60;;
4553;SDS011;2289;48.316;15.174;2023-06-05T06:09:01;15.33;;;13.70;;
4553;SDS011;2289;48.316;15.174;2023-06-05T06:11:31;16.73;;;15.03;;
4553;SDS011;2289;48.316;15.174;2023-06-05T06:13:59;16.73;;;12.60;;
4553;SDS011;2289;48.316;15.174;2023-06-05T06:16:28;15.87;;;14.23;;
4553;SDS011;2289;48.316;15.174;2023-06-05T06:18:59;13.97;;;12.50;;
4553;SDS011;2289;48.316;15.174;2023-06-05T06:21:27;15.87;;;14.07;;
4553;SDS011;2289;48.316;15.174;2023-06-05T06:23:56;15.20;;;13.57;;
4553;SDS011;2289;48.316;15.174;2023-06-05T06:26:25;16.80;;;11.90;;
4553;SDS011;2289;48.316;15.174;2023-06-05T06:28:55;15.37;;;12.07;;
4553;SDS011;2289;48.316;15.174;2023-06-05T06:31:24;12.60;;;11.10;;
4553;SDS011;2289;48.316;15.174;2023-06-05T06:33:53;12.67;;;11.23;;
4553;SDS011;2289;48.316;15.174;2023-06-05T06:36:23;18.57;;;13.40;;
4553;SDS011;2289;48.316;15.174;2023-06-05T06:38:53;13.60;;;12.20;;
4553;SDS011;2289;48.316;15.174;2023-06-05T06:41:23;15.53;;;13.30;;
4553;SDS011;2289;48.316;15.174;2023-06-05T06:43:53;12.67;;;11.37;;
4553;SDS011;2289;48.316;15.174;2023-06-05T06:46:21;12.97;;;11.63;;
4553;SDS011;2289;48.316;15.174;2023-06-05T06:48:50;12.67;;;11.47;;
4553;SDS011;2289;48.316;15.174;2023-06-05T06:51:19;15.47;;;13.37;;
4553;SDS011;2289;48.316;15.174;2023-06-05T06:53:50;16.10;;;14.50;;
4553;SDS011;2289;48.316;15.174;2023-06-05T06:56:19;12.77;;;11.57;;
4553;SDS011;2289;48.316;15.174;2023-06-05T06:58:48;14.80;;;12.97;;
4553;SDS011;2289;48.316;15.174;2023-06-05T07:01:17;14.30;;;12.90;;
4553;SDS011;2289;48.316;15.174;2023-06-05T07:03:46;16.03;;;14.53;;
4553;SDS011;2289;48.316;15.174;2023-06-05T07:06:18;14.13;;;12.73;;
4553;SDS011;2289;48.316;15.174;2023-06-05T07:08:48;13.90;;;11.67;;
4553;SDS011;2289;48.316;15.174;2023-06-05T07:11:19;15.40;;;13.27;;
4553;SDS011;2289;48.316;15.174;2023-06-05T07:13:48;17.27;;;13.90;;
4553;SDS011;2289;48.316;15.174;2023-06-05T07:16:17;15.03;;;13.43;;
4553;SDS011;2289;48.316;15.174;2023-06-05T07:18:46;13.20;;;11.80;;
4553;SDS011;2289;48.316;15.174;2023-06-05T07:21:15;14.07;;;12.70;;
4553;SDS011;2289;48.316;15.174;2023-06-05T07:23:46;15.10;;;13.60;;
4553;SDS011;2289;48.316;15.174;2023-06-05T07:26:20;14.07;;;12.67;;
4553;SDS011;2289;48.316;15.174;2023-06-05T07:28:51;14.53;;;12.63;;
4553;SDS011;2289;48.316;15.174;2023-06-05T07:31:19;13.83;;;12.30;;
4553;SDS011;2289;48.316;15.174;2023-06-05T07:33:48;13.50;;;12.10;;
4553;SDS011;2289;48.316;15.174;2023-06-05T07:36:16;19.20;;;14.80;;
4553;SDS011;2289;48.316;15.174;2023-06-05T07:38:45;13.23;;;11.87;;
4553;SDS011;2289;48.316;15.174;2023-06-05T07:41:14;12.00;;;10.80;;
4553;SDS011;2289;48.316;15.174;2023-06-05T07:43:45;16.27;;;12.87;;
4553;SDS011;2289;48.316;15.174;2023-06-05T07:46:14;14.93;;;13.30;;
4553;SDS011;2289;48.316;15.174;2023-06-05T07:48:43;14.73;;;13.43;;
4553;SDS011;2289;48.316;15.174;2023-06-05T07:51:15;13.63;;;12.33;;
4553;SDS011;2289;48.316;15.174;2023-06-05T07:53:45;12.07;;;10.87;;
4553;SDS011;2289;48.316;15.174;2023-06-05T07:56:14;11.47;;;10.33;;
4553;SDS011;2289;48.316;15.174;2023-06-05T07:58:45;17.77;;;12.37;;
4553;SDS011;2289;48.316;15.174;2023-06-05T08:01:14;18.27;;;13.37;;
4553;SDS011;2289;48.316;15.174;2023-06-05T08:03:42;13.60;;;12.20;;
4553;SDS011;2289;48.316;15.174;2023-06-05T08:06:13;13.23;;;11.93;;
4553;SDS011;2289;48.316;15.174;2023-06-05T08:08:42;14.60;;;11.90;;
4553;SDS011;2289;48.316;15.174;2023-06-05T08:11:11;11.63;;;10.50;;
4553;SDS011;2289;48.316;15.174;2023-06-05T08:13:40;15.07;;;11.50;;
4553;SDS011;2289;48.316;15.174;2023-06-05T08:16:10;11.70;;;10.60;;
4553;SDS011;2289;48.316;15.174;2023-06-05T08:18:40;14.83;;;12.13;;
4553;SDS011;2289;48.316;15.174;2023-06-05T08:21:09;13.03;;;11.47;;
4553;SDS011;2289;48.316;15.174;2023-06-05T08:23:38;18.17;;;13.17;;
4553;SDS011;2289;48.316;15.174;2023-06-05T08:26:06;18.40;;;13.83;;
4553;SDS011;2289;48.316;15.174;2023-06-05T08:28:40;14.20;;;12.70;;
4553;SDS011;2289;48.316;15.174;2023-06-05T08:31:11;14.80;;;13.00;;
4553;SDS011;2289;48.316;15.174;2023-06-05T08:33:41;12.80;;;11.60;;
4553;SDS011;2289;48.316;15.174;2023-06-05T08:36:10;12.40;;;10.40;;
4553;SDS011;2289;48.316;15.174;2023-06-05T08:38:39;12.57;;;11.33;;
4553;SDS011;2289;48.316;15.174;2023-06-05T08:41:08;14.20;;;12.80;;
4553;SDS011;2289;48.316;15.174;2023-06-05T08:43:37;15.77;;;12.00;;
4553;SDS011;2289;48.316;15.174;2023-06-05T08:46:08;12.60;;;10.93;;
4553;SDS011;2289;48.316;15.174;2023-06-05T08:48:41;11.83;;;9.90;;
4553;SDS011;2289;48.316;15.174;2023-06-05T08:51:14;11.17;;;10.00;;
4553;SDS011;2289;48.316;15.174;2023-06-05T08:53:46;11.03;;;9.93;;
4553;SDS011;2289;48.316;15.174;2023-06-05T08:56:17;11.67;;;10.07;;
4553;SDS011;2289;48.316;15.174;2023-06-05T08:58:48;11.37;;;9.33;;
4553;SDS011;2289;48.316;15.174;2023-06-05T09:01:18;12.30;;;9.53;;
4553;SDS011;2289;48.316;15.174;2023-06-05T09:03:48;12.90;;;9.13;;
4553;SDS011;2289;48.316;15.174;2023-06-05T09:06:16;14.43;;;9.63;;
4553;SDS011;2289;48.316;15.174;2023-06-05T09:08:48;10.30;;;9.30;;
4553;SDS011;2289;48.316;15.174;2023-06-05T09:11:21;13.17;;;10.20;;
4553;SDS011;2289;48.316;15.174;2023-06-05T09:13:51;16.67;;;8.97;;
4553;SDS011;2289;48.316;15.174;2023-06-05T09:16:31;10.10;;;8.80;;
4553;SDS011;2289;48.316;15.174;2023-06-05T09:19:01;8.90;;;8.00;;
4553;SDS011;2289;48.316;15.174;2023-06-05T09:21:30;10.00;;;6.90;;
4553;SDS011;2289;48.316;15.174;2023-06-05T09:26:49;8.10;;;7.27;;
4553;SDS011;2289;48.316;15.174;2023-06-05T09:29:21;7.40;;;6.70;;
4553;SDS011;2289;48.316;15.174;2023-06-05T09:31:55;7.20;;;6.53;;
4553;SDS011;2289;48.316;15.174;2023-06-05T09:34:26;8.43;;;7.10;;
4553;SDS011;2289;48.316;15.174;2023-06-05T09:36:56;8.13;;;7.40;;
4553;SDS011;2289;48.316;15.174;2023-06-05T09:39:26;8.53;;;7.73;;
4553;SDS011;2289;48.316;15.174;2023-06-05T09:41:56;7.27;;;6.57;;
4553;SDS011;2289;48.316;15.174;2023-06-05T09:44:27;10.50;;;6.63;;
4553;SDS011;2289;48.316;15.174;2023-06-05T09:46:58;9.27;;;7.33;;
4553;SDS011;2289;48.316;15.174;2023-06-05T09:49:29;8.60;;;7.20;;
4553;SDS011;2289;48.316;15.174;2023-06-05T09:51:59;11.37;;;7.27;;
4553;SDS011;2289;48.316;15.174;2023-06-05T09:54:29;6.57;;;5.97;;
4553;SDS011;2289;48.316;15.174;2023-06-05T09:56:59;7.77;;;7.00;;
4553;SDS011;2289;48.316;15.174;2023-06-05T09:59:29;9.00;;;7.10;;
4553;SDS011;2289;48.316;15.174;2023-06-05T10:02:01;8.90;;;7.27;;
4553;SDS011;2289;48.316;15.174;2023-06-05T10:04:32;10.30;;;7.87;;
4553;SDS011;2289;48.316;15.174;2023-06-05T10:07:06;6.83;;;6.13;;
4553;SDS011;2289;48.316;15.174;2023-06-05T10:09:35;12.33;;;8.00;;
4553;SDS011;2289;48.316;15.174;2023-06-05T10:12:05;12.10;;;8.10;;
4553;SDS011;2289;48.316;15.174;2023-06-05T10:14:34;11.97;;;8.50;;
4553;SDS011;2289;48.316;15.174;2023-06-05T10:17:05;7.90;;;7.17;;
4553;SDS011;2289;48.316;15.174;2023-06-05T10:19:35;7.93;;;6.77;;
4553;SDS011;2289;48.316;15.174;2023-06-05T10:22:04;7.30;;;6.70;;
4553;SDS011;2289;48.316;15.174;2023-06-05T10:24:34;7.50;;;6.80;;
4553;SDS011;2289;48.316;15.174;2023-06-05T10:27:14;12.70;;;7.83;;
4553;SDS011;2289;48.316;15.174;2023-06-05T10:30:01;8.30;;;7.50;;
4553;SDS011;2289;48.316;15.174;2023-06-05T10:32:41;7.63;;;6.90;;
4553;SDS011;2289;48.316;15.174;2023-06-05T10:35:23;7.30;;;6.60;;
4553;SDS011;2289;48.316;15.174;2023-06-05T10:38:04;8.60;;;7.80;;
4553;SDS011;2289;48.316;15.174;2023-06-05T10:40:36;7.27;;;6.57;;
4553;SDS011;2289;48.316;15.174;2023-06-05T10:43:28;8.53;;;7.70;;
4553;SDS011;2289;48.316;15.174;2023-06-05T10:45:58;7.67;;;6.97;;
4553;SDS011;2289;48.316;15.174;2023-06-05T10:51:43;11.17;;;7.50;;
4553;SDS011;2289;48.316;15.174;2023-06-05T10:54:14;7.63;;;7.03;;
4553;SDS011;2289;48.316;15.174;2023-06-05T10:56:53;12.87;;;8.10;;
4553;SDS011;2289;48.316;15.174;2023-06-05T10:59:27;10.37;;;6.87;;
4553;SDS011;2289;48.316;15.174;2023-06-05T11:05:07;7.30;;;6.60;;
4553;SDS011;2289;48.316;15.174;2023-06-05T11:07:40;9.10;;;7.20;;
4553;SDS011;2289;48.316;15.174;2023-06-05T11:10:13;9.03;;;6.93;;
4553;SDS011;2289;48.316;15.174;2023-06-05T11:12:57;8.90;;;7.70;;
4553;SDS011;2289;48.316;15.174;2023-06-05T11:18:27;9.27;;;6.87;;
4553;SDS011;2289;48.316;15.174;2023-06-05T11:20:56;11.87;;;6.47;;
4553;SDS011;2289;48.316;15.174;2023-06-05T11:23:27;7.80;;;6.80;;
4553;SDS011;2289;48.316;15.174;2023-06-05T11:26:40;7.73;;;7.03;;
4553;SDS011;2289;48.316;15.174;2023-06-05T11:29:14;8.03;;;7.30;;
4553;SDS011;2289;48.316;15.174;2023-06-05T11:31:44;6.93;;;6.33;;
4553;SDS011;2289;48.316;15.174;2023-06-05T11:34:13;9.07;;;8.17;;
4553;SDS011;2289;48.316;15.174;2023-06-05T11:36:42;9.37;;;6.80;;
4553;SDS011;2289;48.316;15.174;2023-06-05T11:39:13;7.73;;;7.03;;
4553;SDS011;2289;48.316;15.174;2023-06-05T11:41:49;7.90;;;6.83;;
4553;SDS011;2289;48.316;15.174;2023-06-05T11:44:31;7.80;;;6.63;;
4553;SDS011;2289;48.316;15.174;2023-06-05T11:47:02;8.03;;;7.10;;
4553;SDS011;2289;48.316;15.174;2023-06-05T11:49:31;8.90;;;8.10;;
4553;SDS011;2289;48.316;15.174;2023-06-05T11:52:02;8.40;;;7.57;;
4553;SDS011;2289;48.316;15.174;2023-06-05T11:54:33;9.27;;;8.33;;
4553;SDS011;2289;48.316;15.174;2023-06-05T11:57:12;8.40;;;7.40;;
4553;SDS011;2289;48.316;15.174;2023-06-05T11:59:44;10.10;;;6.77;;
4553;SDS011;2289;48.316;15.174;2023-06-05T12:02:13;8.57;;;7.17;;
4553;SDS011;2289;48.316;15.174;2023-06-05T12:04:42;8.30;;;7.40;;
4553;SDS011;2289;48.316;15.174;2023-06-05T12:07:11;7.50;;;6.77;;
4553;SDS011;2289;48.316;15.174;2023-06-05T12:09:51;9.73;;;7.50;;
4553;SDS011;2289;48.316;15.174;2023-06-05T12:12:20;7.30;;;6.57;;
4553;SDS011;2289;48.316;15.174;2023-06-05T12:14:49;8.10;;;6.70;;
4553;SDS011;2289;48.316;15.174;2023-06-05T12:17:17;7.83;;;6.27;;
4553;SDS011;2289;48.316;15.174;2023-06-05T12:19:52;9.70;;;6.63;;
4553;SDS011;2289;48.316;15.174;2023-06-05T12:22:24;10.47;;;7.10;;
4553;SDS011;2289;48.316;15.174;2023-06-05T12:24:54;9.40;;;7.23;;
4553;SDS011;2289;48.316;15.174;2023-06-05T12:27:35;9.73;;;6.07;;
4553;SDS011;2289;48.316;15.174;2023-06-05T12:30:03;6.70;;;5.90;;
4553;SDS011;2289;48.316;15.174;2023-06-05T12:32:33;8.47;;;6.50;;
4553;SDS011;2289;48.316;15.174;2023-06-05T12:35:03;6.77;;;6.17;;
4553;SDS011;2289;48.316;15.174;2023-06-05T12:37:34;6.93;;;6.20;;
4553;SDS011;2289;48.316;15.174;2023-06-05T12:40:09;14.23;;;6.90;;
4553;SDS011;2289;48.316;15.174;2023-06-05T12:42:47;6.20;;;5.60;;
4553;SDS011;2289;48.316;15.174;2023-06-05T12:48:13;10.50;;;7.00;;
4553;SDS011;2289;48.316;15.174;2023-06-05T12:50:42;8.77;;;6.50;;
4553;SDS011;2289;48.316;15.174;2023-06-05T12:53:11;7.10;;;6.50;;
4553;SDS011;2289;48.316;15.174;2023-06-05T12:55:41;8.60;;;7.80;;
4553;SDS011;2289;48.316;15.174;2023-06-05T12:58:11;7.20;;;6.50;;
4553;SDS011;2289;48.316;15.174;2023-06-05T13:00:41;7.20;;;6.50;;
4553;SDS011;2289;48.316;15.174;2023-06-05T13:03:11;6.27;;;5.67;;
4553;SDS011;2289;48.316;15.174;2023-06-05T13:05:41;12.43;;;6.70;;
4553;SDS011;2289;48.316;15.174;2023-06-05T13:08:10;7.00;;;6.40;;
4553;SDS011;2289;48.316;15.174;2023-06-05T13:10:39;5.67;;;5.17;;
4553;SDS011;2289;48.316;15.174;2023-06-05T13:13:11;7.13;;;6.13;;
4553;SDS011;2289;48.316;15.174;2023-06-05T13:15:44;7.83;;;5.90;;
4553;SDS011;2289;48.316;15.174;2023-06-05T13:18:13;8.73;;;7.00;;
4553;SDS011;2289;48.316;15.174;2023-06-05T13:20:41;7.73;;;6.93;;
4553;SDS011;2289;48.316;15.174;2023-06-05T13:23:10;8.50;;;6.40;;
4553;SDS011;2289;48.316;15.174;2023-06-05T13:25:39;7.00;;;6.30;;
4553;SDS011;2289;48.316;15.174;2023-06-05T13:28:10;9.33;;;6.00;;
4553;SDS011;2289;48.316;15.174;2023-06-05T13:30:39;7.57;;;6.60;;
4553;SDS011;2289;48.316;15.174;2023-06-05T13:33:09;8.30;;;6.37;;
4553;SDS011;2289;48.316;15.174;2023-06-05T13:35:39;6.80;;;6.10;;
4553;SDS011;2289;48.316;15.174;2023-06-05T13:38:09;6.83;;;6.23;;
4553;SDS011;2289;48.316;15.174;2023-06-05T13:40:38;10.10;;;6.13;;
4553;SDS011;2289;48.316;15.174;2023-06-05T13:43:08;6.80;;;6.20;;
4553;SDS011;2289;48.316;15.174;2023-06-05T13:45:40;5.87;;;5.40;;
4553;SDS011;2289;48.316;15.174;2023-06-05T13:48:10;9.83;;;6.83;;
4553;SDS011;2289;48.316;15.174;2023-06-05T13:50:39;7.00;;;6.30;;
4553;SDS011;2289;48.316;15.174;2023-06-05T13:53:08;9.10;;;6.03;;
4553;SDS011;2289;48.316;15.174;2023-06-05T13:55:38;8.53;;;7.57;;
4553;SDS011;2289;48.316;15.174;2023-06-05T13:58:09;11.47;;;7.37;;
4553;SDS011;2289;48.316;15.174;2023-06-05T14:00:40;8.80;;;7.30;;
4553;SDS011;2289;48.316;15.174;2023-06-05T14:03:12;9.70;;;7.67;;
4553;SDS011;2289;48.316;15.174;2023-06-05T14:05:40;8.70;;;8.00;;
4553;SDS011;2289;48.316;15.174;2023-06-05T14:08:13;7.20;;;6.50;;
4553;SDS011;2289;48.316;15.174;2023-06-05T14:10:42;8.07;;;7.17;;
4553;SDS011;2289;48.316;15.174;2023-06-05T14:13:11;5.97;;;5.47;;
4553;SDS011;2289;48.316;15.174;2023-06-05T14:15:42;6.87;;;6.07;;
4553;SDS011;2289;48.316;15.174;2023-06-05T14:18:11;7.10;;;5.70;;
4553;SDS011;2289;48.316;15.174;2023-06-05T14:20:40;7.10;;;5.83;;
4553;SDS011;2289;48.316;15.174;2023-06-05T14:23:09;6.70;;;6.00;;
4553;SDS011;2289;48.316;15.174;2023-06-05T14:25:38;8.90;;;5.73;;
4553;SDS011;2289;48.316;15.174;2023-06-05T14:28:07;13.07;;;6.37;;
4553;SDS011;2289;48.316;15.174;2023-06-05T14:30:37;6.80;;;6.10;;
4553;SDS011;2289;48.316;15.174;2023-06-05T14:33:09;6.90;;;6.30;;
4553;SDS011;2289;48.316;15.174;2023-06-05T14:35:38;10.30;;;5.53;;
4553;SDS011;2289;48.316;15.174;2023-06-05T14:38:07;5.47;;;4.97;;
4553;SDS011;2289;48.316;15.174;2023-06-05T14:40:39;6.93;;;5.43;;
4553;SDS011;2289;48.316;15.174;2023-06-05T14:43:08;5.70;;;5.20;;
4553;SDS011;2289;48.316;15.174;2023-06-05T14:45:37;5.70;;;5.20;;
4553;SDS011;2289;48.316;15.174;2023-06-05T14:48:08;6.87;;;5.47;;
4553;SDS011;2289;48.316;15.174;2023-06-05T14:50:37;6.33;;;5.73;;
4553;SDS011;2289;48.316;15.174;2023-06-05T14:53:07;5.97;;;5.40;;
4553;SDS011;2289;48.316;15.174;2023-06-05T14:55:36;7.93;;;5.03;;
4553;SDS011;2289;48.316;15.174;2023-06-05T14:58:06;6.17;;;5.60;;
4553;SDS011;2289;48.316;15.174;2023-06-05T15:00:37;5.70;;;5.00;;
4553;SDS011;2289;48.316;15.174;2023-06-05T15:03:06;5.53;;;5.13;;
4553;SDS011;2289;48.316;15.174;2023-06-05T15:05:37;7.00;;;5.50;;
4553;SDS011;2289;48.316;15.174;2023-06-05T15:08:06;6.20;;;5.60;;
4553;SDS011;2289;48.316;15.174;2023-06-05T15:10:35;6.53;;;5.13;;
4553;SDS011;2289;48.316;15.174;2023-06-05T15:13:04;6.43;;;5.03;;
4553;SDS011;2289;48.316;15.174;2023-06-05T15:15:34;5.93;;;5.27;;
4553;SDS011;2289;48.316;15.174;2023-06-05T15:18:06;8.93;;;7.27;;
4553;SDS011;2289;48.316;15.174;2023-06-05T15:20:35;7.43;;;6.20;;
4553;SDS011;2289;48.316;15.174;2023-06-05T15:23:08;7.33;;;6.17;;
4553;SDS011;2289;48.316;15.174;2023-06-05T15:25:42;9.50;;;7.13;;